.
WxDataArchive / Data Records for 2012-02-27
2012-02-26 February 2012 2012-02-28

Data Records for Monday, 27 February 2012

Time	Temp	Chill	HIndex	Humid	Dewpt	 Wind 	HiWind	WindDir	Rain 	Barom 
-----	----	-----	------	-----	-----	------	------	-------	-----	----- 
00:00	37.5	37.5	37.5	55	22.8	1	4	112	0.00	30.126 
00:05	37.5	37.5	37.5	55	22.8	0	2	270	0.00	30.126 
00:10	37.6	37.6	37.6	54	22.5	0	2	270	0.00	30.126 
00:15	37.6	37.6	37.6	55	22.9	0	3	270	0.00	30.123 
00:20	37.6	37.6	37.6	54	22.5	0	3	270	0.00	30.123 
00:25	37.6	37.6	37.6	55	22.9	0	2	22	0.00	30.123 
00:30	37.6	37.6	37.6	55	22.9	0	2	22	0.00	30.121 
00:35	37.8	37.8	37.8	55	23.1	0	2	225	0.00	30.121 
00:40	37.8	37.8	37.8	54	22.7	0	3	225	0.00	30.121 
00:45	37.8	37.8	37.8	54	22.7	0	3	225	0.00	30.119 
00:50	37.9	37.9	37.9	54	22.8	0	2	225	0.00	30.119 
00:55	37.9	37.9	37.9	54	22.8	0	2	225	0.00	30.119 
01:00	37.8	37.8	37.8	54	22.7	0	2	225	0.00	30.121 
01:05	37.8	37.8	37.8	55	23.1	0	2	225	0.00	30.121 
01:10	37.5	37.5	37.5	55	22.8	0	1	225	0.00	30.121 
01:15	37.3	37.3	37.3	56	23.1	0	2	225	0.00	30.114 
01:20	37.3	37.3	37.3	56	23.1	1	4	90	0.00	30.114 
01:25	37.5	37.5	37.5	56	23.2	0	2	225	0.00	30.114 
01:30	37.6	37.6	37.6	56	23.3	0	3	225	0.00	30.114 
01:35	37.6	37.6	37.6	56	23.3	0	3	225	0.00	30.114 
01:40	37.6	37.6	37.6	56	23.3	0	2	225	0.00	30.114 
01:45	37.8	37.8	37.8	56	23.5	0	2	225	0.00	30.114 
01:50	37.9	37.9	37.9	55	23.2	1	3	225	0.00	30.114 
01:55	38.0	38.0	38.0	55	23.3	0	3	225	0.00	30.114 
02:00	38.3	38.3	38.3	55	23.6	1	3	225	0.00	30.112 
02:05	38.5	38.5	38.5	54	23.3	0	2	225	0.00	30.112 
02:10	38.5	38.5	38.5	55	23.8	0	2	225	0.00	30.112 
02:15	38.3	38.3	38.3	55	23.6	0	2	225	0.00	30.106 
02:20	38.5	38.5	38.5	54	23.3	1	3	225	0.00	30.106 
02:25	38.6	38.6	38.6	54	23.4	1	3	225	0.00	30.106 
02:30	38.6	38.6	38.6	54	23.4	0	4	225	0.00	30.108 
02:35	38.8	38.8	38.8	54	23.6	1	4	225	0.00	30.108 
02:40	38.8	38.8	38.8	54	23.6	0	2	225	0.00	30.108 
02:45	38.8	38.8	38.8	54	23.6	0	3	225	0.00	30.105 
02:50	38.8	38.8	38.8	54	23.6	1	3	225	0.00	30.105 
02:55	38.9	38.9	38.9	54	23.7	0	2	225	0.00	30.105 
03:00	38.9	38.9	38.9	53	23.2	1	2	225	0.00	30.108 
03:05	39.1	39.1	39.1	53	23.4	1	3	225	0.00	30.108 
03:10	39.1	39.1	39.1	53	23.4	0	2	225	0.00	30.108 
03:15	39.1	39.1	39.1	53	23.4	0	2	225	0.00	30.109 
03:20	39.1	39.1	39.1	53	23.4	1	3	225	0.00	30.109 
03:25	39.2	39.2	39.2	53	23.5	1	4	225	0.00	30.109 
03:30	39.3	39.3	39.3	53	23.6	1	3	225	0.00	30.109 
03:35	39.3	39.3	39.3	53	23.6	1	3	225	0.00	30.109 
03:40	39.2	39.2	39.2	54	24.0	0	2	225	0.00	30.109 
03:45	39.1	39.1	39.1	54	23.9	0	2	225	0.00	30.113 
03:50	38.9	38.9	38.9	54	23.7	1	3	225	0.00	30.113 
03:55	38.9	38.9	38.9	54	23.7	1	4	225	0.00	30.113 
04:00	39.2	39.2	39.2	54	24.0	1	3	225	0.00	30.119 
04:05	39.2	39.2	39.2	54	24.0	1	3	225	0.00	30.119 
04:10	39.3	39.3	39.3	54	24.1	1	3	225	0.00	30.119 
04:15	39.5	39.5	39.5	53	23.8	1	5	225	0.00	30.117 
04:20	39.6	39.6	39.6	53	23.9	1	4	248	0.00	30.117 
04:25	39.9	39.9	39.9	53	24.2	1	3	248	0.00	30.117 
04:30	40.2	40.2	40.2	52	24.0	1	4	248	0.00	30.119 
04:35	40.3	40.3	40.3	53	24.5	1	3	248	0.00	30.119 
04:40	40.3	40.3	40.3	53	24.5	1	4	248	0.00	30.119 
04:45	40.5	40.5	40.5	53	24.7	1	2	248	0.00	30.124 
04:50	40.6	40.6	40.6	53	24.8	1	3	248	0.00	30.124 
04:55	40.8	40.8	40.8	53	25.0	1	3	248	0.00	30.124 
05:00	40.8	40.8	40.8	54	25.5	1	3	248	0.00	30.126 
05:05	40.8	40.8	40.8	54	25.5	1	4	248	0.00	30.126 
05:10	40.6	40.6	40.6	55	25.7	1	2	248	0.00	30.126 
05:15	40.5	40.5	40.5	56	26.1	1	4	248	0.00	30.132 
05:20	40.5	40.5	40.5	56	26.1	1	3	248	0.00	30.132 
05:25	40.3	40.3	40.3	57	26.3	1	3	248	0.00	30.132 
05:30	40.2	40.2	40.2	57	26.2	1	3	248	0.00	30.131 
05:35	40.1	40.1	40.1	58	26.5	1	3	248	0.00	30.131 
05:40	40.1	40.1	40.1	58	26.5	1	4	248	0.00	30.131 
05:45	39.9	39.9	39.9	59	26.7	1	2	248	0.00	30.133 
05:50	39.9	39.9	39.9	59	26.7	0	2	248	0.00	30.133 
05:55	39.8	39.8	39.8	60	27.1	1	3	248	0.00	30.133 
06:00	39.6	39.6	39.6	60	26.9	1	3	248	0.00	30.139 
06:05	39.8	39.8	39.8	61	27.5	1	2	248	0.00	30.139 
06:10	39.6	39.6	39.6	61	27.3	1	4	248	0.00	30.139 
06:15	39.6	39.6	39.6	61	27.3	1	4	248	0.00	30.147 
06:20	39.6	39.6	39.6	62	27.7	1	3	248	0.00	30.147 
06:25	39.5	39.5	39.5	61	27.2	1	3	248	0.00	30.147 
06:30	39.5	39.5	39.5	61	27.2	1	4	248	0.00	30.152 
06:35	39.5	39.5	39.5	62	27.6	1	2	248	0.00	30.152 
06:40	39.3	39.3	39.3	62	27.4	1	2	248	0.00	30.152 
06:45	39.2	39.2	39.2	62	27.3	0	3	248	0.00	30.161 
06:50	39.1	39.1	39.1	63	27.6	1	3	248	0.00	30.161 
06:55	38.9	38.9	38.9	63	27.4	1	2	248	0.00	30.161 
07:00	38.8	38.8	38.8	63	27.3	1	3	248	0.00	30.166 
07:05	38.6	38.6	38.6	63	27.1	1	2	248	0.00	30.166 
07:10	38.5	38.5	38.5	63	27.0	0	2	248	0.00	30.166 
07:15	38.3	38.3	38.3	63	26.8	0	2	248	0.00	30.170 
07:20	38.2	38.2	38.2	63	26.7	1	4	248	0.00	30.170 
07:25	38.3	38.3	38.3	62	26.4	1	4	248	0.00	30.170 
07:30	38.3	38.3	38.3	62	26.4	1	2	248	0.00	30.173 
07:35	38.3	38.3	38.3	62	26.4	1	4	248	0.00	30.173 
07:40	38.3	38.3	38.3	62	26.4	1	4	248	0.00	30.173 
07:45	38.3	38.3	38.3	62	26.4	1	4	248	0.00	30.176 
07:50	38.2	38.2	38.2	63	26.7	1	4	248	0.00	30.176 
07:55	38.2	38.2	38.2	63	26.7	2	5	248	0.00	30.176 
08:00	38.3	38.3	38.3	62	26.4	1	3	248	0.00	30.182 
08:05	38.6	38.6	38.6	62	26.7	2	4	248	0.00	30.182 
08:10	38.9	38.9	38.9	60	26.2	2	5	248	0.00	30.182 
08:15	39.1	39.1	39.1	59	26.0	2	5	248	0.00	30.185 
08:20	39.2	39.2	39.2	58	25.7	2	5	248	0.00	30.185 
08:25	39.2	39.2	39.2	57	25.3	2	5	248	0.00	30.185 
08:30	39.3	39.3	39.3	56	24.9	2	4	248	0.00	30.190 
08:35	39.5	39.5	39.5	54	24.2	2	5	248	0.00	30.190 
08:40	39.6	39.6	39.6	53	23.9	2	7	248	0.00	30.190 
08:45	39.9	39.9	39.9	52	23.7	3	6	270	0.00	30.193 
08:50	40.1	40.1	40.1	51	23.4	3	9	248	0.00	30.193 
08:55	40.2	40.2	40.2	51	23.5	3	6	248	0.00	30.193 
09:00	40.5	40.5	40.5	50	23.3	2	6	248	0.00	30.196 
09:05	40.6	40.6	40.6	49	23.0	3	9	248	0.00	30.196 
09:10	40.8	38.2	40.8	47	22.1	4	6	270	0.00	30.196 
09:15	40.8	40.8	40.8	47	22.1	3	6	270	0.00	30.196 
09:20	41.1	41.1	41.1	48	22.9	3	7	248	0.00	30.196 
09:25	41.1	41.1	41.1	47	22.4	3	6	270	0.00	30.196 
09:30	41.3	41.3	41.3	48	23.1	2	9	248	0.00	30.201 
09:35	41.6	41.6	41.6	47	22.9	3	6	270	0.00	30.201 
09:40	41.8	41.8	41.8	46	22.6	3	7	270	0.00	30.201 
09:45	41.8	41.8	41.8	46	22.6	3	10	248	0.00	30.208 
09:50	41.8	41.8	41.8	46	22.6	3	7	248	0.00	30.208 
09:55	41.9	39.5	41.9	44	21.6	4	7	270	0.00	30.208 
10:00	42.1	39.7	42.1	44	21.8	4	8	270	0.00	30.212 
10:05	42.2	39.9	42.2	44	21.9	4	9	270	0.00	30.212 
10:10	42.5	42.5	42.5	44	22.1	3	6	270	0.00	30.212 
10:15	42.6	40.3	42.6	41	20.6	4	7	270	0.00	30.216 
10:20	42.8	42.8	42.8	42	21.3	3	7	270	0.00	30.216 
10:25	42.9	40.7	42.9	41	20.8	4	9	270	0.00	30.216 
10:30	42.9	40.7	42.9	41	20.8	4	9	270	0.00	30.222 
10:35	42.8	39.8	42.8	39	19.6	5	10	270	0.00	30.222 
10:40	42.9	42.9	42.9	43	22.0	3	11	248	0.00	30.222 
10:45	43.5	43.5	43.5	41	21.4	3	7	248	0.00	30.223 
10:50	43.2	41.0	43.2	41	21.1	4	10	270	0.00	30.223 
10:55	43.5	41.4	43.5	41	21.4	4	12	248	0.00	30.223 
11:00	43.6	43.6	43.6	41	21.5	3	12	248	0.00	30.226 
11:05	43.6	43.6	43.6	43	22.6	3	7	270	0.00	30.226 
11:10	43.6	41.5	43.6	42	22.0	4	7	248	0.00	30.226 
11:15	43.6	41.5	43.6	43	22.6	4	11	248	0.00	30.228 
11:20	43.9	41.8	43.9	42	22.3	4	7	248	0.00	30.228 
11:25	43.9	41.8	43.9	42	22.3	4	10	270	0.00	30.228 
11:30	43.9	41.1	43.9	40	21.2	5	12	270	0.00	30.231 
11:35	43.8	40.9	43.8	39	20.5	5	10	270	0.00	30.231 
11:40	43.8	41.7	43.8	39	20.5	4	10	270	0.00	30.231 
11:45	43.6	40.0	43.6	38	19.7	6	10	270	0.00	30.239 
11:50	43.3	39.7	43.3	36	18.2	6	11	270	0.00	30.239 
11:55	43.2	40.2	43.2	37	18.7	5	10	270	0.00	30.239 
12:00	42.9	39.9	42.9	38	19.1	5	10	270	0.00	30.245 
12:05	42.6	39.5	42.6	38	18.8	5	12	270	0.00	30.245 
12:10	42.3	38.5	42.3	38	18.5	6	12	270	0.00	30.245 
12:15	42.2	38.4	42.2	40	19.6	6	12	270	0.00	30.249 
12:20	42.1	37.7	42.1	37	17.7	7	13	270	0.00	30.249 
12:25	41.9	37.4	41.9	38	18.2	7	13	270	0.00	30.249 
12:30	42.2	39.1	42.2	38	18.4	5	11	270	0.00	30.260 
12:35	42.2	39.1	42.2	40	19.6	5	9	270	0.00	30.260 
12:40	42.1	38.3	42.1	39	18.9	6	13	270	0.00	30.260 
12:45	42.2	39.1	42.2	41	20.2	5	10	270	0.00	30.261 
12:50	41.8	37.9	41.8	40	19.3	6	10	270	0.00	30.261 
12:55	41.8	38.6	41.8	41	19.8	5	11	270	0.00	30.261 
13:00	41.6	38.4	41.6	41	19.7	5	10	270	0.00	30.265 
13:05	41.9	38.7	41.9	45	22.1	5	9	270	0.00	30.265 
13:10	41.9	38.7	41.9	43	21.1	5	10	270	0.00	30.265 
13:15	41.6	37.7	41.6	40	19.1	6	11	270	0.00	30.264 
13:20	41.6	38.4	41.6	44	21.3	5	10	270	0.00	30.264 
13:25	42.1	39.7	42.1	46	22.8	4	7	270	0.00	30.264 
13:30	42.1	38.3	42.1	43	21.2	6	10	270	0.00	30.268 
13:35	42.1	38.9	42.1	43	21.2	5	9	270	0.00	30.268 
13:40	41.9	38.7	41.9	42	20.5	5	11	270	0.00	30.268 
13:45	41.9	38.0	41.9	43	21.1	6	11	270	0.00	30.275 
13:50	41.8	37.9	41.8	45	22.0	6	13	270	0.00	30.275 
13:55	42.1	39.7	42.1	46	22.8	4	9	248	0.00	30.275 
14:00	42.6	40.3	42.6	45	22.8	4	9	270	0.00	30.277 
14:05	42.6	40.3	42.6	44	22.2	4	10	248	0.00	30.277 
14:10	42.6	39.5	42.6	42	21.1	5	13	270	0.00	30.277 
14:15	42.3	39.2	42.3	41	20.3	5	11	270	0.00	30.280 
14:20	42.2	39.1	42.2	41	20.2	5	10	270	0.00	30.280 
14:25	42.3	40.0	42.3	41	20.3	4	9	270	0.00	30.280 
14:30	42.2	39.1	42.2	41	20.2	5	10	270	0.00	30.289 
14:35	42.3	39.2	42.3	40	19.7	5	10	270	0.00	30.289 
14:40	42.3	38.5	42.3	40	19.7	6	10	270	0.00	30.289 
14:45	42.2	39.1	42.2	40	19.6	5	10	270	0.00	30.293 
14:50	42.2	39.1	42.2	41	20.2	5	10	270	0.00	30.293 
14:55	42.2	39.1	42.2	41	20.2	5	12	270	0.00	30.293 
15:00	42.2	39.9	42.2	41	20.2	4	7	292	0.00	30.299 
15:05	42.3	40.0	42.3	41	20.3	4	9	270	0.00	30.299 
15:10	42.1	39.7	42.1	42	20.7	4	8	270	0.00	30.299 
15:15	42.2	39.9	42.2	42	20.8	4	11	270	0.00	30.307 
15:20	41.9	39.5	41.9	43	21.1	4	7	270	0.00	30.307 
15:25	41.8	39.4	41.8	42	20.4	4	9	292	0.00	30.307 
15:30	41.9	41.9	41.9	43	21.1	3	7	270	0.00	30.312 
15:35	41.9	39.5	41.9	43	21.1	4	10	292	0.00	30.312 
15:40	42.1	42.1	42.1	45	22.3	3	6	270	0.00	30.312 
15:45	42.5	42.5	42.5	43	21.6	3	6	270	0.00	30.325 
15:50	42.3	42.3	42.3	42	20.9	3	9	270	0.00	30.325 
15:55	42.1	42.1	42.1	43	21.2	3	6	270	0.00	30.325 
16:00	41.8	41.8	41.8	44	21.5	3	6	248	0.00	30.327 
16:05	41.8	41.8	41.8	44	21.5	2	7	270	0.00	30.327 
16:10	41.8	41.8	41.8	45	22.0	3	6	270	0.00	30.327 
16:15	41.3	38.8	41.3	44	21.0	4	7	270	0.00	30.329 
16:20	41.1	41.1	41.1	45	21.4	3	7	270	0.00	30.329 
16:25	40.9	40.9	40.9	46	21.7	3	6	270	0.00	30.329 
16:30	40.8	38.2	40.8	46	21.6	4	7	270	0.00	30.340 
16:35	40.8	40.8	40.8	46	21.6	3	6	270	0.00	30.340 
16:40	40.8	40.8	40.8	46	21.6	2	6	270	0.00	30.340 
16:45	40.6	40.6	40.6	46	21.5	3	6	270	0.00	30.349 
16:50	40.8	40.8	40.8	47	22.1	2	4	270	0.00	30.349 
16:55	40.5	40.5	40.5	46	21.4	3	6	270	0.00	30.349 
17:00	40.2	40.2	40.2	47	21.6	2	5	270	0.00	30.357 
17:05	40.1	40.1	40.1	47	21.5	2	5	270	0.00	30.357 
17:10	39.6	39.6	39.6	46	20.5	3	7	292	0.00	30.357 
17:15	39.2	39.2	39.2	47	20.7	2	6	292	0.00	30.373 
17:20	38.9	38.9	38.9	46	19.9	3	7	315	0.00	30.373 
17:25	38.8	38.8	38.8	47	20.3	3	5	338	0.00	30.373 
17:30	38.3	38.3	38.3	48	20.4	3	6	338	0.00	30.386 
17:35	38.2	38.2	38.2	48	20.3	3	7	270	0.00	30.386 
17:40	38.0	38.0	38.0	50	21.0	1	3	292	0.00	30.386 
17:45	37.9	37.9	37.9	50	20.9	1	3	248	0.00	30.393 
17:50	37.6	37.6	37.6	50	20.7	1	3	270	0.00	30.393 
17:55	37.3	37.3	37.3	50	20.4	1	3	338	0.00	30.393 
18:00	37.0	37.0	37.0	50	20.1	2	5	270	0.00	30.404 
18:05	36.8	36.8	36.8	50	19.9	3	7	315	0.00	30.404 
18:10	36.6	36.6	36.6	51	20.2	2	5	270	0.00	30.404 
18:15	36.3	36.3	36.3	52	20.4	1	3	292	0.00	30.413 
18:20	36.0	36.0	36.0	53	20.5	1	4	292	0.00	30.413 
18:25	35.9	35.9	35.9	54	20.9	1	3	292	0.00	30.413 
18:30	35.6	35.6	35.6	54	20.6	0	2	292	0.00	30.418 
18:35	35.3	35.3	35.3	55	20.8	1	3	292	0.00	30.418 
18:40	35.2	35.2	35.2	55	20.7	1	5	270	0.00	30.418 
18:45	35.0	35.0	35.0	56	20.9	1	4	292	0.00	30.425 
18:50	34.7	34.7	34.7	57	21.0	0	1	292	0.00	30.425 
18:55	34.4	34.4	34.4	58	21.2	0	2	292	0.00	30.425 
19:00	34.1	34.1	34.1	58	20.9	0	3	292	0.00	30.437 
19:05	33.8	33.8	33.8	59	21.0	0	2	292	0.00	30.437 
19:10	33.5	33.5	33.5	60	21.1	0	2	292	0.00	30.437 
19:15	33.4	33.4	33.4	60	21.0	0	1	292	0.00	30.447 
19:20	33.1	33.1	33.1	61	21.1	0	1	292	0.00	30.447 
19:25	32.9	32.9	32.9	62	21.3	0	2	292	0.00	30.447 
19:30	32.7	32.7	32.7	62	21.1	0	2	292	0.00	30.458 
19:35	32.5	32.5	32.5	62	20.9	0	2	292	0.00	30.458 
19:40	32.5	32.5	32.5	62	20.9	0	2	315	0.00	30.458 
19:45	32.2	32.2	32.2	63	21.0	0	0	---	0.00	30.467 
19:50	32.1	32.1	32.1	63	20.9	0	1	315	0.00	30.467 
19:55	31.8	31.8	31.8	64	21.0	0	1	315	0.00	30.467 
20:00	31.6	31.6	31.6	64	20.8	0	3	315	0.00	30.473 
20:05	31.6	31.6	31.6	64	20.8	0	4	292	0.00	30.473 
20:10	31.5	31.5	31.5	64	20.7	1	3	292	0.00	30.473 
20:15	31.3	31.3	31.3	65	20.9	0	2	270	0.00	30.473 
20:20	31.2	31.2	31.2	65	20.8	0	1	270	0.00	30.473 
20:25	31.0	31.0	31.0	65	20.6	0	1	270	0.00	30.473 
20:30	30.9	30.9	30.9	65	20.5	0	1	270	0.00	30.474 
20:35	30.7	30.7	30.7	65	20.3	0	0	---	0.00	30.474 
20:40	30.4	30.4	30.4	65	20.1	0	0	---	0.00	30.474 
20:45	30.3	30.3	30.3	66	20.3	0	0	---	0.00	30.470 
20:50	30.1	30.1	30.1	66	20.1	0	0	---	0.00	30.470 
20:55	29.8	29.8	29.8	66	19.8	0	0	---	0.00	30.470 
21:00	29.5	29.5	29.5	67	19.9	0	0	---	0.00	30.475 
21:05	29.4	29.4	29.4	67	19.8	0	0	---	0.00	30.475 
21:10	29.1	29.1	29.1	68	19.9	0	0	---	0.00	30.475 
21:15	29.0	29.0	29.0	68	19.8	0	0	---	0.00	30.481 
21:20	28.7	28.7	28.7	68	19.5	0	0	---	0.00	30.481 
21:25	28.4	28.4	28.4	69	19.5	0	0	---	0.00	30.481 
21:30	28.1	28.1	28.1	69	19.3	0	0	---	0.00	30.487 
21:35	27.8	27.8	27.8	70	19.3	0	0	---	0.00	30.487 
21:40	27.6	27.6	27.6	71	19.4	0	0	---	0.00	30.487 
21:45	27.3	27.3	27.3	71	19.2	0	0	---	0.00	30.491 
21:50	27.0	27.0	27.0	72	19.2	0	0	---	0.00	30.491 
21:55	26.9	26.9	26.9	73	19.4	0	0	---	0.00	30.491 
22:00	26.6	26.6	26.6	73	19.1	0	0	---	0.00	30.493 
22:05	26.4	26.4	26.4	74	19.3	0	0	---	0.00	30.493 
22:10	26.1	26.1	26.1	74	19.0	0	0	---	0.00	30.493 
22:15	26.0	26.0	26.0	75	19.2	0	0	---	0.00	30.493 
22:20	25.8	25.8	25.8	75	19.0	0	0	---	0.00	30.493 
22:25	25.8	25.8	25.8	76	19.3	0	0	---	0.00	30.493 
22:30	25.6	25.6	25.6	76	19.1	0	0	---	0.00	30.495 
22:35	25.6	25.6	25.6	77	19.4	0	0	---	0.00	30.495 
22:40	25.4	25.4	25.4	77	19.2	0	0	---	0.00	30.495 
22:45	25.3	25.3	25.3	77	19.1	0	0	---	0.00	30.504 
22:50	25.1	25.1	25.1	77	18.9	0	0	---	0.00	30.504 
22:55	25.0	25.0	25.0	78	19.1	0	0	---	0.00	30.504 
23:00	24.8	24.8	24.8	78	18.9	0	0	---	0.00	30.502 
23:05	24.8	24.8	24.8	79	19.2	0	0	---	0.00	30.502 
23:10	24.7	24.7	24.7	79	19.1	0	0	---	0.00	30.502 
23:15	24.5	24.5	24.5	79	18.9	0	0	---	0.00	30.507 
23:20	24.5	24.5	24.5	79	18.9	0	0	---	0.00	30.507 
23:25	24.4	24.4	24.4	80	19.1	0	0	---	0.00	30.507 
23:30	24.2	24.2	24.2	80	18.9	0	0	---	0.00	30.508 
23:35	24.1	24.1	24.1	80	18.8	0	0	---	0.00	30.508 
23:40	23.9	23.9	23.9	80	18.6	0	0	---	0.00	30.508 
23:45	23.6	23.6	23.6	80	18.4	0	0	---	0.00	30.510 
23:50	23.6	23.6	23.6	81	18.6	0	0	---	0.00	30.510 
23:55	23.5	23.5	23.5	81	18.5	0	0	---	0.00	30.510 

CoCoRaHS
IN-AL-39
A2 Web Hosting
Creative Commons License
GoDaddy
search engine by freefind advanced

loaded 2018-11-20 06:31:14 • last modified 2010-11-18 10:43:29
Privacy PolicyDisclaimer
• wx.awcolley.com is powered by PmWiki v.2002016 •
• all content (unless otherwise noted) © 2018 A W Colley